createdAt,value
2023-05-10T00:00:17.917Z,1012.93
2023-05-10T00:00:48.231Z,1012.93
2023-05-10T00:01:11.761Z,1012.93
2023-05-10T00:01:48.606Z,1012.93
2023-05-10T00:02:19.966Z,1013.14
2023-05-10T00:02:43.022Z,1013.14
2023-05-10T00:03:05.303Z,1013.14
2023-05-10T00:03:39.908Z,1013.14
2023-05-10T00:04:12.059Z,1013.14
2023-05-10T00:04:43.700Z,1013.14
2023-05-10T00:05:15.329Z,1013.04
2023-05-10T00:05:47.878Z,1013.04
2023-05-10T00:06:19.751Z,1013.14
2023-05-10T00:06:43.365Z,1012.93
2023-05-10T00:07:05.724Z,1012.93
2023-05-10T00:07:39.910Z,1012.93
2023-05-10T00:08:11.641Z,1013.04
2023-05-10T00:08:43.801Z,1013.04
2023-05-10T00:09:15.399Z,1012.93
2023-05-10T00:09:47.797Z,1012.93
2023-05-10T00:10:19.836Z,1013.04
2023-05-10T00:10:42.797Z,1012.93
2023-05-10T00:11:05.077Z,1012.93
2023-05-10T00:11:39.996Z,1012.93
2023-05-10T00:12:11.950Z,1013.14
2023-05-10T00:12:43.796Z,1013.14
2023-05-10T00:13:20.836Z,1012.93
2023-05-10T00:13:47.934Z,1012.93
2023-05-10T00:14:19.969Z,1013.04
2023-05-10T00:14:42.531Z,1012.83
2023-05-10T00:15:04.997Z,1012.83
2023-05-10T00:15:39.842Z,1012.83
2023-05-10T00:16:11.783Z,1013.14
2023-05-10T00:16:43.817Z,1013.14
2023-05-10T00:17:15.726Z,1013.14
2023-05-10T00:17:48.038Z,1013.14
2023-05-10T00:18:19.757Z,1012.83
2023-05-10T00:18:42.594Z,1013.04
2023-05-10T00:19:04.850Z,1013.04
2023-05-10T00:19:39.835Z,1013.04
2023-05-10T00:20:11.696Z,1012.83
2023-05-10T00:20:43.620Z,1012.83
2023-05-10T00:21:15.177Z,1013.14
2023-05-10T00:21:47.709Z,1013.14
2023-05-10T00:22:19.855Z,1012.93
2023-05-10T00:22:43.138Z,1012.93
2023-05-10T00:23:23.812Z,1012.93
2023-05-10T00:23:46.594Z,1013.04
2023-05-10T00:24:09.249Z,1013.04
2023-05-10T00:24:43.963Z,1013.04
2023-05-10T00:25:15.393Z,1013.04
2023-05-10T00:25:47.759Z,1013.04
2023-05-10T00:26:19.629Z,1012.93
2023-05-10T00:26:42.355Z,1013.04
2023-05-10T00:27:04.765Z,1013.04
2023-05-10T00:27:41.494Z,1013.04
2023-05-10T00:28:11.602Z,1012.93
2023-05-10T00:28:43.729Z,1012.93
2023-05-10T00:29:15.385Z,1013.04
2023-05-10T00:29:48.003Z,1013.04
2023-05-10T00:30:19.767Z,1013.14
2023-05-10T00:30:42.337Z,1012.83
2023-05-10T00:31:04.745Z,1012.83
2023-05-10T00:31:40.223Z,1012.83
2023-05-10T00:32:12.006Z,1012.83
2023-05-10T00:32:43.682Z,1012.83
2023-05-10T00:33:15.402Z,1012.93
2023-05-10T00:33:48.040Z,1012.93
2023-05-10T00:34:19.634Z,1012.73
2023-05-10T00:34:42.559Z,1012.93
2023-05-10T00:35:04.908Z,1012.93
2023-05-10T00:35:39.865Z,1012.93
2023-05-10T00:36:11.870Z,1012.93
2023-05-10T00:36:43.687Z,1012.93
2023-05-10T00:37:15.823Z,1012.73
2023-05-10T00:37:47.808Z,1012.73
2023-05-10T00:38:19.763Z,1012.93
2023-05-10T00:38:43.086Z,1012.83
2023-05-10T00:39:05.167Z,1012.83
2023-05-10T00:39:39.770Z,1012.83
2023-05-10T00:40:14.476Z,1012.93
2023-05-10T00:40:44.255Z,1012.93
2023-05-10T00:41:15.382Z,1012.83
2023-05-10T00:41:48.074Z,1012.83
2023-05-10T00:42:19.741Z,1012.93
2023-05-10T00:42:42.580Z,1012.93
2023-05-10T00:43:05.461Z,1012.93
2023-05-10T00:43:39.730Z,1012.93
2023-05-10T00:44:11.795Z,1012.83
2023-05-10T00:44:43.787Z,1012.83
2023-05-10T00:45:15.302Z,1012.73
2023-05-10T00:45:47.975Z,1012.73
2023-05-10T00:46:19.736Z,1012.93
2023-05-10T00:46:43.151Z,1012.63
2023-05-10T00:47:05.564Z,1012.63
2023-05-10T00:47:40.077Z,1012.63
2023-05-10T00:48:13.314Z,1012.83
2023-05-10T00:48:43.894Z,1012.83
2023-05-10T00:49:15.855Z,1012.83
2023-05-10T00:49:48.139Z,1012.83
2023-05-10T00:50:19.883Z,1012.73
2023-05-10T00:50:42.774Z,1012.93
2023-05-10T00:51:05.290Z,1012.93
2023-05-10T00:51:39.676Z,1012.93
2023-05-10T00:52:13.531Z,1013.04
2023-05-10T00:52:43.941Z,1013.04
2023-05-10T00:53:15.861Z,1012.93
2023-05-10T00:53:49.281Z,1012.93
2023-05-10T00:54:20.298Z,1012.83
2023-05-10T00:54:42.863Z,1012.83
2023-05-10T00:55:05.337Z,1012.83
2023-05-10T00:55:39.741Z,1012.83
2023-05-10T00:56:11.611Z,1012.93
2023-05-10T00:56:43.801Z,1012.93
2023-05-10T00:57:15.740Z,1012.83
2023-05-10T00:57:47.837Z,1012.83
2023-05-10T00:58:19.846Z,1012.83
2023-05-10T00:58:42.922Z,1013.14
2023-05-10T00:59:05.884Z,1013.14
2023-05-10T00:59:40.305Z,1013.14
2023-05-10T01:00:11.945Z,1013.04
2023-05-10T01:00:43.776Z,1013.04
2023-05-10T01:01:15.343Z,1012.93
2023-05-10T01:01:47.979Z,1012.93
2023-05-10T01:02:27.527Z,1012.83
2023-05-10T01:02:54.844Z,1013.04
2023-05-10T01:03:40.162Z,1013.04
2023-05-10T01:04:11.870Z,1012.73
2023-05-10T01:04:43.928Z,1012.73
2023-05-10T01:05:15.331Z,1013.04
2023-05-10T01:05:47.630Z,1013.04
2023-05-10T01:06:19.691Z,1012.83
2023-05-10T01:06:42.417Z,1012.63
2023-05-10T01:07:04.691Z,1012.63
2023-05-10T01:07:40.184Z,1012.63
2023-05-10T01:08:11.902Z,1012.83
2023-05-10T01:08:43.575Z,1012.83
2023-05-10T01:09:15.232Z,1013.04
2023-05-10T01:09:47.669Z,1013.04
2023-05-10T01:10:19.687Z,1012.83
2023-05-10T01:10:42.595Z,1013.14
2023-05-10T01:11:05.124Z,1013.14
2023-05-10T01:11:39.715Z,1013.14
2023-05-10T01:12:12.199Z,1012.83
2023-05-10T01:12:43.945Z,1012.83
2023-05-10T01:13:16.887Z,1012.73
2023-05-10T01:13:47.693Z,1012.73
2023-05-10T01:14:19.955Z,1012.93
2023-05-10T01:14:42.691Z,1012.93
2023-05-10T01:15:05.265Z,1012.93
2023-05-10T01:15:39.742Z,1012.93
2023-05-10T01:16:11.832Z,1012.93
2023-05-10T01:16:43.704Z,1012.93
2023-05-10T01:17:15.640Z,1013.04
2023-05-10T01:17:47.650Z,1013.04
2023-05-10T01:18:19.636Z,1012.93
2023-05-10T01:18:42.564Z,1012.73
2023-05-10T01:19:04.946Z,1012.73
2023-05-10T01:19:39.813Z,1012.73
2023-05-10T01:20:11.627Z,1012.93
2023-05-10T01:20:43.593Z,1012.93
2023-05-10T01:21:15.250Z,1012.93
2023-05-10T01:21:47.553Z,1012.93
2023-05-10T01:22:19.677Z,1012.73
2023-05-10T01:22:42.800Z,1013.04
2023-05-10T01:23:05.127Z,1013.04
2023-05-10T01:23:39.686Z,1013.04
2023-05-10T01:24:11.589Z,1013.04
2023-05-10T01:24:43.654Z,1013.04
2023-05-10T01:25:15.308Z,1013.04
2023-05-10T01:25:47.908Z,1013.04
2023-05-10T01:26:19.669Z,1013.04
2023-05-10T01:26:42.771Z,1013.04
2023-05-10T01:27:04.990Z,1013.04
2023-05-10T01:27:39.866Z,1013.04
2023-05-10T01:28:11.773Z,1013.04
2023-05-10T01:28:43.775Z,1013.04
2023-05-10T01:29:15.509Z,1012.93
2023-05-10T01:29:47.683Z,1012.93
2023-05-10T01:30:42.445Z,1013.04
2023-05-10T01:31:04.970Z,1013.04
2023-05-10T01:31:41.278Z,1013.04
2023-05-10T01:32:11.555Z,1012.73
2023-05-10T01:32:44.002Z,1012.73
2023-05-10T01:33:15.345Z,1012.73
2023-05-10T01:33:48.154Z,1012.73
2023-05-10T01:34:19.662Z,1013.04
2023-05-10T01:34:43.608Z,1013.14
2023-05-10T01:35:05.559Z,1013.14
2023-05-10T01:35:41.689Z,1013.14
2023-05-10T01:36:11.570Z,1012.93
2023-05-10T01:36:44.251Z,1012.93
2023-05-10T01:37:15.623Z,1012.93
2023-05-10T01:37:47.692Z,1012.93
2023-05-10T01:38:19.875Z,1012.93
2023-05-10T01:38:42.325Z,1013.04
2023-05-10T01:39:04.717Z,1013.04
2023-05-10T01:39:41.275Z,1013.04
2023-05-10T01:40:11.694Z,1012.93
2023-05-10T01:40:43.608Z,1012.93
2023-05-10T01:41:15.278Z,1013.24
2023-05-10T01:41:47.884Z,1013.24
2023-05-10T01:42:19.648Z,1013.14
2023-05-10T01:42:43.083Z,1013.04
2023-05-10T01:43:05.614Z,1013.04
2023-05-10T01:43:41.744Z,1013.04
2023-05-10T01:44:11.792Z,1013.14
2023-05-10T01:44:43.565Z,1013.14
2023-05-10T01:45:15.397Z,1013.04
2023-05-10T01:45:47.688Z,1013.04
2023-05-10T01:46:19.729Z,1013.04
2023-05-10T01:46:43.218Z,1013.14
2023-05-10T01:47:04.925Z,1013.14
2023-05-10T01:47:39.718Z,1013.14
2023-05-10T01:48:11.896Z,1012.93
2023-05-10T01:48:43.945Z,1012.93
2023-05-10T01:49:15.465Z,1012.83
2023-05-10T01:49:47.798Z,1012.83
2023-05-10T01:50:19.761Z,1012.93
2023-05-10T01:50:42.970Z,1013.04
2023-05-10T01:51:05.215Z,1013.04
2023-05-10T01:51:39.865Z,1013.04
2023-05-10T01:52:11.767Z,1013.04
2023-05-10T01:52:44.009Z,1013.04
2023-05-10T01:53:15.253Z,1012.93
2023-05-10T01:53:47.726Z,1012.93
2023-05-10T01:54:19.683Z,1013.34
2023-05-10T01:54:43.685Z,1012.93
2023-05-10T01:55:05.916Z,1012.93
2023-05-10T01:55:39.744Z,1012.93
2023-05-10T01:56:12.130Z,1013.14
2023-05-10T01:56:44.675Z,1013.14
2023-05-10T01:57:15.504Z,1013.04
2023-05-10T01:57:47.853Z,1013.04
2023-05-10T01:58:19.802Z,1012.83
2023-05-10T01:58:44.227Z,1013.04
2023-05-10T01:59:05.440Z,1013.04
2023-05-10T01:59:39.719Z,1013.04
2023-05-10T02:00:21.917Z,1013.04
2023-05-10T02:00:44.581Z,1013.04
2023-05-10T02:01:15.370Z,1013.04
2023-05-10T02:02:48.083Z,1012.93
2023-05-10T02:03:24.710Z,1012.93
2023-05-10T02:03:49.643Z,1012.93
2023-05-10T02:04:10.094Z,1012.93
2023-05-10T02:04:45.282Z,1012.93
2023-05-10T02:05:15.900Z,1013.04
2023-05-10T02:05:48.309Z,1013.04
2023-05-10T02:06:19.763Z,1012.93
2023-05-10T02:06:42.427Z,1013.14
2023-05-10T02:07:05.538Z,1013.14
2023-05-10T02:07:39.794Z,1013.14
2023-05-10T02:08:11.774Z,1013.04
2023-05-10T02:08:45.945Z,1013.04
2023-05-10T02:09:16.328Z,1013.14
2023-05-10T02:09:47.662Z,1013.14
2023-05-10T02:10:19.692Z,1012.93
2023-05-10T02:10:42.427Z,1013.04
2023-05-10T02:11:04.870Z,1013.04
2023-05-10T02:11:43.383Z,1013.04
2023-05-10T02:12:05.749Z,1013.04
2023-05-10T02:12:44.041Z,1013.04
2023-05-10T02:13:17.893Z,1013.04
2023-05-10T02:13:47.657Z,1013.04
2023-05-10T02:14:19.708Z,1012.93
2023-05-10T02:14:43.075Z,1013.04
2023-05-10T02:15:05.423Z,1013.04
2023-05-10T02:15:39.643Z,1013.04
2023-05-10T02:16:11.664Z,1013.04
2023-05-10T02:16:43.763Z,1013.04
2023-05-10T02:17:15.243Z,1012.93
2023-05-10T02:17:47.716Z,1012.93
2023-05-10T02:18:19.728Z,1012.93
2023-05-10T02:18:48.042Z,1013.04
2023-05-10T02:19:04.930Z,1013.04
2023-05-10T02:19:39.922Z,1013.04
2023-05-10T02:20:11.773Z,1013.24
2023-05-10T02:20:43.630Z,1013.24
2023-05-10T02:21:15.308Z,1013.04
2023-05-10T02:21:48.005Z,1013.04
2023-05-10T02:22:19.511Z,1013.14
2023-05-10T02:22:42.339Z,1013.14
2023-05-10T02:23:04.630Z,1013.14
2023-05-10T02:23:39.416Z,1013.14
2023-05-10T02:24:11.655Z,1013.14
2023-05-10T02:24:43.673Z,1013.14
2023-05-10T02:25:15.676Z,1013.14
2023-05-10T02:25:48.564Z,1013.14
2023-05-10T02:26:20.014Z,1013.14
2023-05-10T02:26:43.573Z,1012.93
2023-05-10T02:27:05.900Z,1012.93
2023-05-10T02:27:39.576Z,1012.93
2023-05-10T02:28:11.557Z,1013.04
2023-05-10T02:28:43.556Z,1013.04
2023-05-10T02:29:15.415Z,1013.04
2023-05-10T02:29:49.966Z,1013.04
2023-05-10T02:30:20.031Z,1013.24
2023-05-10T02:30:43.258Z,1013.24
2023-05-10T02:31:05.643Z,1013.24
2023-05-10T02:31:39.953Z,1013.24
2023-05-10T02:32:11.749Z,1013.14
2023-05-10T02:32:43.590Z,1013.14
2023-05-10T02:33:15.471Z,1012.93
2023-05-10T02:33:50.029Z,1012.93
2023-05-10T02:34:19.418Z,1013.24
2023-05-10T02:34:42.749Z,1013.41
2023-05-10T02:35:05.103Z,1013.41
2023-05-10T02:35:39.565Z,1013.41
2023-05-10T02:36:11.544Z,1013.14
2023-05-10T02:36:43.585Z,1013.14
2023-05-10T02:37:15.388Z,1013.14
2023-05-10T02:37:47.688Z,1013.14
2023-05-10T02:38:19.428Z,1012.93
2023-05-10T02:38:42.111Z,1013.04
2023-05-10T02:39:04.529Z,1013.04
2023-05-10T02:39:39.734Z,1013.04
2023-05-10T02:40:11.766Z,1013.24
2023-05-10T02:40:43.690Z,1013.24
2023-05-10T02:41:15.354Z,1013.04
2023-05-10T02:41:47.643Z,1013.04
2023-05-10T02:42:19.543Z,1013.04
2023-05-10T02:42:42.362Z,1013.24
2023-05-10T02:43:04.786Z,1013.24
2023-05-10T02:43:39.648Z,1013.24
2023-05-10T02:44:11.611Z,1013.14
2023-05-10T02:44:43.485Z,1013.14
2023-05-10T02:45:15.294Z,1013.14
2023-05-10T02:45:47.559Z,1013.14
2023-05-10T02:46:19.750Z,1013.14
2023-05-10T02:46:42.706Z,1013.14
2023-05-10T02:47:04.883Z,1013.14
2023-05-10T02:47:39.833Z,1013.14
2023-05-10T02:48:11.546Z,1012.73
2023-05-10T02:48:43.526Z,1012.73
2023-05-10T02:49:15.218Z,1013.04
2023-05-10T02:49:47.964Z,1013.04
2023-05-10T02:50:19.656Z,1013.14
2023-05-10T02:50:42.421Z,1012.93
2023-05-10T02:51:04.907Z,1012.93
2023-05-10T02:51:39.542Z,1012.93
2023-05-10T02:52:11.422Z,1013.04
2023-05-10T02:52:43.546Z,1013.04
2023-05-10T02:53:15.522Z,1013.14
2023-05-10T02:53:47.808Z,1013.14
2023-05-10T02:54:19.588Z,1012.93
2023-05-10T02:54:43.691Z,1013.14
2023-05-10T02:55:06.227Z,1013.14
2023-05-10T02:55:39.713Z,1013.14
2023-05-10T02:56:11.609Z,1013.04
2023-05-10T02:56:43.474Z,1013.04
2023-05-10T02:57:15.401Z,1013.14
2023-05-10T02:57:47.707Z,1013.14
2023-05-10T02:58:19.856Z,1013.14
2023-05-10T02:58:43.526Z,1013.14
2023-05-10T02:59:05.748Z,1013.14
2023-05-10T02:59:39.811Z,1013.14
2023-05-10T03:00:11.914Z,1013.14
2023-05-10T03:00:43.640Z,1013.14
2023-05-10T03:01:15.589Z,1013.24
2023-05-10T03:01:47.589Z,1013.24
2023-05-10T03:02:19.889Z,1013.04
2023-05-10T03:02:42.694Z,1013.04
2023-05-10T03:03:04.982Z,1013.04
2023-05-10T03:03:39.606Z,1013.04
2023-05-10T03:04:11.573Z,1013.24
2023-05-10T03:04:43.512Z,1013.24
2023-05-10T03:05:15.523Z,1013.14
2023-05-10T03:05:47.702Z,1013.14
2023-05-10T03:06:19.534Z,1013.24
2023-05-10T03:06:42.406Z,1013.14
2023-05-10T03:07:04.764Z,1013.14
2023-05-10T03:07:39.738Z,1013.14
2023-05-10T03:08:11.462Z,1013.14
2023-05-10T03:08:43.643Z,1013.14
2023-05-10T03:09:15.570Z,1013.14
2023-05-10T03:09:47.589Z,1013.14
2023-05-10T03:10:19.642Z,1013.14
2023-05-10T03:10:42.180Z,1013.24
2023-05-10T03:11:04.577Z,1013.24
2023-05-10T03:11:39.795Z,1013.24
2023-05-10T03:12:11.755Z,1013.24
2023-05-10T03:12:43.555Z,1013.24
2023-05-10T03:13:16.851Z,1013.41
2023-05-10T03:13:47.628Z,1013.41
2023-05-10T03:14:19.501Z,1013.34
2023-05-10T03:14:42.180Z,1013.24
2023-05-10T03:15:04.724Z,1013.24
2023-05-10T03:15:39.550Z,1013.24
2023-05-10T03:16:11.627Z,1013.24
2023-05-10T03:16:45.049Z,1013.24
2023-05-10T03:17:15.228Z,1013.24
2023-05-10T03:17:47.518Z,1013.24
2023-05-10T03:18:19.792Z,1013.14
2023-05-10T03:18:42.407Z,1013.14
2023-05-10T03:19:04.925Z,1013.14
2023-05-10T03:19:39.797Z,1013.14
2023-05-10T03:20:11.658Z,1013.34
2023-05-10T03:20:43.642Z,1013.34
2023-05-10T03:21:15.324Z,1013.34
2023-05-10T03:21:47.901Z,1013.34
2023-05-10T03:22:19.527Z,1013.34
2023-05-10T03:22:42.748Z,1013.34
2023-05-10T03:23:05.104Z,1013.34
2023-05-10T03:23:39.595Z,1013.34
2023-05-10T03:24:11.602Z,1013.24
2023-05-10T03:24:43.836Z,1013.24
2023-05-10T03:25:15.389Z,1013.51
2023-05-10T03:25:47.749Z,1013.51
2023-05-10T03:26:19.535Z,1013.34
2023-05-10T03:26:42.262Z,1013.24
2023-05-10T03:27:17.704Z,1013.24
2023-05-10T03:27:47.185Z,1013.14
2023-05-10T03:28:09.849Z,1013.14
2023-05-10T03:28:43.556Z,1013.14
2023-05-10T03:29:15.446Z,1013.24
2023-05-10T03:29:47.718Z,1013.24
2023-05-10T03:30:19.792Z,1013.34
2023-05-10T03:30:42.512Z,1013.51
2023-05-10T03:31:04.749Z,1013.51
2023-05-10T03:31:40.258Z,1013.51
2023-05-10T03:32:11.753Z,1013.34
2023-05-10T03:32:43.533Z,1013.34
2023-05-10T03:33:15.283Z,1013.34
2023-05-10T03:33:47.881Z,1013.34
2023-05-10T03:34:19.518Z,1013.34
2023-05-10T03:34:42.381Z,1013.34
2023-05-10T03:35:04.655Z,1013.34
2023-05-10T03:35:39.563Z,1013.34
2023-05-10T03:36:11.450Z,1013.24
2023-05-10T03:36:43.399Z,1013.24
2023-05-10T03:37:15.455Z,1013.34
2023-05-10T03:37:47.534Z,1013.34
2023-05-10T03:38:19.484Z,1013.41
2023-05-10T03:38:42.425Z,1013.51
2023-05-10T03:39:04.932Z,1013.51
2023-05-10T03:39:39.490Z,1013.51
2023-05-10T03:40:11.403Z,1013.51
2023-05-10T03:40:43.788Z,1013.51
2023-05-10T03:41:15.244Z,1013.34
2023-05-10T03:41:47.385Z,1013.34
2023-05-10T03:42:19.339Z,1013.61
2023-05-10T03:42:42.084Z,1013.61
2023-05-10T03:43:04.512Z,1013.61
2023-05-10T03:43:39.743Z,1013.61
2023-05-10T03:44:11.341Z,1013.61
2023-05-10T03:44:43.507Z,1013.61
2023-05-10T03:45:15.397Z,1013.34
2023-05-10T03:45:48.003Z,1013.34
2023-05-10T03:46:19.571Z,1013.61
2023-05-10T03:46:42.417Z,1013.51
2023-05-10T03:47:04.873Z,1013.51
2023-05-10T03:47:39.483Z,1013.51
2023-05-10T03:48:11.456Z,1013.41
2023-05-10T03:48:43.670Z,1013.41
2023-05-10T03:49:15.472Z,1013.51
2023-05-10T03:49:47.735Z,1013.51
2023-05-10T03:50:20.227Z,1013.71
2023-05-10T03:50:43.365Z,1013.71
2023-05-10T03:51:05.719Z,1013.71
2023-05-10T03:51:39.501Z,1013.71
2023-05-10T03:52:11.814Z,1013.51
2023-05-10T03:52:43.342Z,1013.51
2023-05-10T03:53:15.256Z,1013.92
2023-05-10T03:53:47.778Z,1013.92
2023-05-10T03:54:21.000Z,1013.71
2023-05-10T03:54:42.483Z,1013.51
2023-05-10T03:55:05.309Z,1013.51
2023-05-10T03:55:39.613Z,1013.51
2023-05-10T03:56:11.703Z,1013.61
2023-05-10T03:56:43.809Z,1013.61
2023-05-10T03:57:15.517Z,1013.61
2023-05-10T03:57:47.714Z,1013.61
2023-05-10T03:58:19.349Z,1013.71
2023-05-10T03:58:42.192Z,1013.51
2023-05-10T03:59:04.776Z,1013.51
2023-05-10T03:59:39.796Z,1013.51
2023-05-10T04:00:12.883Z,1013.61
2023-05-10T04:00:43.439Z,1013.61
2023-05-10T04:01:15.353Z,1013.71
2023-05-10T04:01:47.677Z,1013.71
2023-05-10T04:02:20.264Z,1013.61
2023-05-10T04:02:46.363Z,1013.71
2023-05-10T04:03:06.428Z,1013.71
2023-05-10T04:03:40.142Z,1013.71
2023-05-10T04:04:11.872Z,1013.61
2023-05-10T04:04:43.554Z,1013.61
2023-05-10T04:05:15.372Z,1013.71
2023-05-10T04:05:47.666Z,1013.71
2023-05-10T04:06:19.613Z,1013.92
2023-05-10T04:06:42.643Z,1013.82
2023-05-10T04:07:05.397Z,1013.82
2023-05-10T04:07:39.511Z,1013.82
2023-05-10T04:08:11.983Z,1013.82
2023-05-10T04:08:43.736Z,1013.82
2023-05-10T04:09:15.912Z,1013.82
2023-05-10T04:09:47.604Z,1013.82
2023-05-10T04:10:19.788Z,1013.61
2023-05-10T04:10:43.729Z,1013.82
2023-05-10T04:11:05.826Z,1013.82
2023-05-10T04:11:39.650Z,1013.82
2023-05-10T04:12:11.698Z,1013.92
2023-05-10T04:12:43.817Z,1013.92
2023-05-10T04:13:16.467Z,1013.82
2023-05-10T04:13:47.574Z,1013.82
2023-05-10T04:14:19.473Z,1013.71
2023-05-10T04:14:42.285Z,1013.92
2023-05-10T04:15:06.404Z,1013.92
2023-05-10T04:15:39.711Z,1013.92
2023-05-10T04:16:11.671Z,1013.82
2023-05-10T04:16:43.645Z,1013.82
2023-05-10T04:17:15.651Z,1013.71
2023-05-10T04:17:47.504Z,1013.71
2023-05-10T04:18:19.370Z,1013.61
2023-05-10T04:18:42.303Z,1013.92
2023-05-10T04:19:06.303Z,1013.92
2023-05-10T04:19:39.740Z,1013.92
2023-05-10T04:20:11.887Z,1013.82
2023-05-10T04:20:43.455Z,1013.82
2023-05-10T04:21:15.777Z,1013.82
2023-05-10T04:21:47.557Z,1013.82
2023-05-10T04:22:19.559Z,1013.82
2023-05-10T04:22:42.420Z,1014.02
2023-05-10T04:23:06.667Z,1014.02
2023-05-10T04:23:39.496Z,1014.02
2023-05-10T04:24:12.311Z,1014.02
2023-05-10T04:24:43.684Z,1014.02
2023-05-10T04:25:15.634Z,1014.02
2023-05-10T04:25:47.493Z,1014.02
2023-05-10T04:26:19.647Z,1013.92
2023-05-10T04:26:42.599Z,1013.82
2023-05-10T04:27:07.771Z,1013.82
2023-05-10T04:27:40.007Z,1013.82
2023-05-10T04:28:11.692Z,1013.92
2023-05-10T04:28:43.675Z,1013.92
2023-05-10T04:29:15.454Z,1013.82
2023-05-10T04:29:47.880Z,1013.82
2023-05-10T04:30:19.474Z,1013.92
2023-05-10T04:30:42.423Z,1014.02
2023-05-10T04:31:04.884Z,1014.02
2023-05-10T04:31:39.694Z,1014.02
2023-05-10T04:32:11.381Z,1014.02
2023-05-10T04:32:43.857Z,1014.02
2023-05-10T04:33:15.425Z,1013.92
2023-05-10T04:33:47.394Z,1013.92
2023-05-10T04:34:19.758Z,1014.02
2023-05-10T04:34:42.611Z,1014.02
2023-05-10T04:35:04.820Z,1014.02
2023-05-10T04:35:39.375Z,1014.02
2023-05-10T04:36:11.557Z,1014.12
2023-05-10T04:36:43.472Z,1014.12
2023-05-10T04:37:15.590Z,1014.02
2023-05-10T04:37:47.483Z,1014.02
2023-05-10T04:38:19.523Z,1014.02
2023-05-10T04:38:42.305Z,1013.92
2023-05-10T04:39:04.757Z,1013.92
2023-05-10T04:39:40.972Z,1013.92
2023-05-10T04:40:11.608Z,1013.92
2023-05-10T04:40:43.682Z,1013.92
2023-05-10T04:41:15.554Z,1014.12
2023-05-10T04:41:47.418Z,1014.12
2023-05-10T04:42:19.504Z,1013.92
2023-05-10T04:42:42.399Z,1014.12
2023-05-10T04:43:04.951Z,1014.12
2023-05-10T04:43:39.786Z,1014.12
2023-05-10T04:44:11.508Z,1013.92
2023-05-10T04:44:43.614Z,1013.92
2023-05-10T04:45:15.506Z,1014.02
2023-05-10T04:45:47.678Z,1014.02
2023-05-10T04:46:19.531Z,1014.02
2023-05-10T04:46:42.369Z,1014.02
2023-05-10T04:47:04.440Z,1014.02
2023-05-10T04:47:39.879Z,1014.02
2023-05-10T04:48:11.468Z,1013.92
2023-05-10T04:48:43.737Z,1013.92
2023-05-10T04:49:15.418Z,1014.12
2023-05-10T04:49:47.678Z,1014.12
2023-05-10T04:50:19.491Z,1014.02
2023-05-10T04:50:42.422Z,1014.12
2023-05-10T04:51:04.986Z,1014.12
2023-05-10T04:51:39.454Z,1014.12
2023-05-10T04:52:11.502Z,1014.32
2023-05-10T04:52:43.706Z,1014.32
2023-05-10T04:53:16.038Z,1014.32
2023-05-10T04:54:01.641Z,1014.32
2023-05-10T04:54:19.467Z,1014.32
2023-05-10T04:54:43.254Z,1014.22
2023-05-10T04:55:05.628Z,1014.22
2023-05-10T04:55:39.655Z,1014.22
2023-05-10T04:56:11.502Z,1014.22
2023-05-10T04:56:44.329Z,1014.22
2023-05-10T04:57:15.915Z,1014.12
2023-05-10T04:57:48.573Z,1014.12
2023-05-10T04:58:20.907Z,1014.32
2023-05-10T04:58:43.552Z,1014.32
2023-05-10T04:59:06.093Z,1014.32
2023-05-10T04:59:39.584Z,1014.32
2023-05-10T05:00:21.548Z,1014.32
2023-05-10T05:00:40.478Z,1014.32
2023-05-10T05:01:15.698Z,1014.42
2023-05-10T05:01:47.686Z,1014.42
2023-05-10T05:02:19.593Z,1014.22
2023-05-10T05:02:43.266Z,1014.32
2023-05-10T05:03:05.254Z,1014.32
2023-05-10T05:03:39.694Z,1014.32
2023-05-10T05:04:12.980Z,1014.22
2023-05-10T05:04:43.683Z,1014.22
2023-05-10T05:05:15.913Z,1014.32
2023-05-10T05:05:47.388Z,1014.32
2023-05-10T05:06:19.952Z,1014.22
2023-05-10T05:06:43.064Z,1014.42
2023-05-10T05:07:05.433Z,1014.42
2023-05-10T05:07:39.638Z,1014.42
2023-05-10T05:08:13.926Z,1014.42
2023-05-10T05:08:43.495Z,1014.42
2023-05-10T05:09:15.545Z,1014.53
2023-05-10T05:09:47.471Z,1014.53
2023-05-10T05:10:19.977Z,1014.42
2023-05-10T05:10:43.030Z,1014.42
2023-05-10T05:11:05.424Z,1014.42
2023-05-10T05:11:39.507Z,1014.42
2023-05-10T05:12:14.299Z,1014.42
2023-05-10T05:12:43.891Z,1014.42
2023-05-10T05:13:17.044Z,1014.42
2023-05-10T05:13:47.475Z,1014.42
2023-05-10T05:14:19.445Z,1014.53
2023-05-10T05:14:42.248Z,1014.42
2023-05-10T05:15:04.847Z,1014.42
2023-05-10T05:15:41.278Z,1014.42
2023-05-10T05:16:11.473Z,1014.42
2023-05-10T05:16:43.696Z,1014.42
2023-05-10T05:17:15.531Z,1014.63
2023-05-10T05:17:47.502Z,1014.63
2023-05-10T05:18:19.458Z,1014.53
2023-05-10T05:18:42.328Z,1014.42
2023-05-10T05:19:05.220Z,1014.42
2023-05-10T05:19:39.605Z,1014.42
2023-05-10T05:20:11.327Z,1014.32
2023-05-10T05:20:43.458Z,1014.32
2023-05-10T05:21:16.025Z,1014.42
2023-05-10T05:21:47.320Z,1014.42
2023-05-10T05:22:19.804Z,1014.42
2023-05-10T05:22:43.112Z,1014.53
2023-05-10T05:23:05.153Z,1014.53
2023-05-10T05:23:39.723Z,1014.53
2023-05-10T05:24:11.453Z,1014.53
2023-05-10T05:24:43.444Z,1014.53
2023-05-10T05:25:16.642Z,1014.53
2023-05-10T05:25:47.425Z,1014.53
2023-05-10T05:26:19.615Z,1014.73
2023-05-10T05:26:42.373Z,1014.53
2023-05-10T05:27:04.462Z,1014.53
2023-05-10T05:27:39.526Z,1014.53
2023-05-10T05:28:11.430Z,1014.73
2023-05-10T05:28:43.663Z,1014.73
2023-05-10T05:29:17.483Z,1014.53
2023-05-10T05:29:47.362Z,1014.53
2023-05-10T05:30:19.568Z,1014.83
2023-05-10T05:30:42.151Z,1014.53
2023-05-10T05:31:04.552Z,1014.53
2023-05-10T05:31:39.797Z,1014.53
2023-05-10T05:32:11.811Z,1014.63
2023-05-10T05:32:43.638Z,1014.63
2023-05-10T05:33:17.985Z,1014.53
2023-05-10T05:33:49.970Z,1014.53
2023-05-10T05:34:19.333Z,1014.53
2023-05-10T05:34:42.568Z,1014.73
2023-05-10T05:35:05.089Z,1014.73
2023-05-10T05:35:39.427Z,1014.73
2023-05-10T05:36:11.456Z,1014.73
2023-05-10T05:36:43.468Z,1014.73
2023-05-10T05:37:15.534Z,1014.53
2023-05-10T05:37:47.407Z,1014.53
2023-05-10T05:38:19.433Z,1014.83
2023-05-10T05:38:42.241Z,1014.83
2023-05-10T05:39:04.466Z,1014.83
2023-05-10T05:39:39.408Z,1014.83
2023-05-10T05:40:11.441Z,1014.83
2023-05-10T05:40:43.420Z,1014.83
2023-05-10T05:41:15.485Z,1014.73
2023-05-10T05:41:47.518Z,1014.73
2023-05-10T05:42:19.627Z,1014.63
2023-05-10T05:42:42.134Z,1014.73
2023-05-10T05:43:04.456Z,1014.73
2023-05-10T05:43:39.287Z,1014.73
2023-05-10T05:44:11.393Z,1014.83
2023-05-10T05:44:43.490Z,1014.83
2023-05-10T05:45:15.810Z,1014.63
2023-05-10T05:45:47.378Z,1014.63
2023-05-10T05:46:20.264Z,1014.73
2023-05-10T05:46:42.238Z,1014.63
2023-05-10T05:47:04.418Z,1014.63
2023-05-10T05:47:39.888Z,1014.63
2023-05-10T05:48:11.379Z,1014.83
2023-05-10T05:48:44.693Z,1014.83
2023-05-10T05:49:15.336Z,1014.73
2023-05-10T05:49:47.665Z,1014.73
2023-05-10T05:50:20.879Z,1014.83
2023-05-10T05:50:42.448Z,1014.63
2023-05-10T05:51:07.164Z,1014.63
2023-05-10T05:51:39.423Z,1014.63
2023-05-10T05:52:11.429Z,1014.73
2023-05-10T05:52:43.403Z,1014.73
2023-05-10T05:53:15.527Z,1014.83
2023-05-10T05:53:47.637Z,1014.83
2023-05-10T05:54:21.747Z,1014.73
2023-05-10T05:54:42.100Z,1014.73
2023-05-10T05:55:06.915Z,1014.73
2023-05-10T05:55:39.698Z,1014.73
2023-05-10T05:56:11.504Z,1014.63
2023-05-10T05:56:43.617Z,1014.63
2023-05-10T05:57:15.695Z,1014.73
2023-05-10T05:57:47.621Z,1014.73
2023-05-10T05:58:24.494Z,1014.73
2023-05-10T05:58:44.163Z,1014.73
2023-05-10T05:59:06.838Z,1014.73
2023-05-10T05:59:39.351Z,1014.73
2023-05-10T06:00:11.763Z,1014.53
2023-05-10T06:00:43.522Z,1014.53
2023-05-10T06:01:16.339Z,1014.83
2023-05-10T06:01:50.955Z,1014.73
2023-05-10T06:02:13.781Z,1014.73
2023-05-10T06:02:47.484Z,1014.73
2023-05-10T06:03:23.781Z,1014.73
2023-05-10T06:03:49.037Z,1014.93
2023-05-10T06:04:09.231Z,1014.93
2023-05-10T06:04:44.814Z,1014.93